CYXY

Whitehorse / Erik Nielsen International Airport

Whitehorse, , Canada
METAR CYXY 221800Z 16010KT 40SM FEW040 SCT070 BKN100 01/M04 A3006 RMK SC1AC3AS3 SLP217
Observed Flight Rules
Apr-22 @ 18:00 UTC (22 minutes ago) Visual Flight Rules
Wind Visibility Clouds
160° at 10 knots 40 miles
  • Few at 4,000' AGL
  • Scattered at 7,000' AGL
  • Broken at 10,000' AGL
Temperatures Readings
Current 1°C / 34°F
Dewpoint -4°C / 25°F
Humidity 70%
Altimeter 30.06" Hg
Pressure 1021.7 hPa
Elevation 703
METAR CYXY 221800Z 16010KT 40SM FEW040 SCT070 BKN100 01/M04 A3006 RMK SC1AC3AS3 SLP217
Observed Flight Rules
Apr-22 @ 18:00 UTC
(22 minutes ago)
VFR
Wind Visibility
160° at 10 knots 40 miles
Clouds
  • Few at 4,000' AGL
  • Scattered at 7,000' AGL
  • Broken at 10,000' AGL
Temperature Dewpoint
1°C / 34°F -4°C / 25°F
Humidity Altimeter Pressure
70% 30.06" Hg 1021.7 hPa